createdAt,value
2022-08-05T00:02:57.284Z,17.01
2022-08-05T00:06:51.960Z,16.99
2022-08-05T00:10:17.093Z,16.97
2022-08-05T00:13:53.245Z,16.92
2022-08-05T00:17:27.937Z,16.85
2022-08-05T00:21:04.403Z,16.77
2022-08-05T00:24:42.434Z,16.65
2022-08-05T00:28:21.219Z,16.56
2022-08-05T00:32:15.280Z,16.48
2022-08-05T00:35:37.359Z,16.39
2022-08-05T00:39:36.930Z,16.32
2022-08-05T00:43:07.703Z,16.27
2022-08-05T00:47:02.066Z,16.25
2022-08-05T00:50:26.022Z,16.26
2022-08-05T00:54:03.238Z,16.31
2022-08-05T00:57:58.582Z,16.36
2022-08-05T01:01:42.057Z,16.37
2022-08-05T01:05:10.049Z,16.39
2022-08-05T01:08:44.299Z,16.40
2022-08-05T01:12:40.113Z,16.41
2022-08-05T01:16:33.844Z,16.41
2022-08-05T01:20:20.363Z,16.43
2022-08-05T01:24:35.177Z,16.48
2022-08-05T01:28:03.568Z,16.56
2022-08-05T01:31:55.451Z,16.59
2022-08-05T01:35:51.966Z,16.60
2022-08-05T01:39:05.204Z,16.61
2022-08-05T01:42:44.422Z,16.55
2022-08-05T01:46:42.280Z,16.50
2022-08-05T01:50:15.002Z,16.46
2022-08-05T01:53:57.500Z,16.44
2022-08-05T01:58:09.315Z,16.42
2022-08-05T02:01:40.604Z,16.39
2022-08-05T02:05:11.861Z,16.39
2022-08-05T02:08:44.874Z,16.38
2022-08-05T02:12:33.096Z,16.36
2022-08-05T02:16:04.613Z,16.35
2022-08-05T02:19:47.026Z,16.34
2022-08-05T02:23:13.539Z,16.36
2022-08-05T02:26:54.731Z,16.40
2022-08-05T02:30:27.958Z,16.43
2022-08-05T02:34:06.213Z,16.43
2022-08-05T02:37:59.112Z,16.39
2022-08-05T02:41:28.958Z,16.36
2022-08-05T02:45:28.495Z,16.31
2022-08-05T02:49:11.200Z,16.28
2022-08-05T02:52:33.750Z,16.24
2022-08-05T02:56:29.008Z,16.21
2022-08-05T02:59:54.165Z,16.20
2022-08-05T03:04:03.146Z,16.16
2022-08-05T03:08:00.457Z,16.12
2022-08-05T03:11:57.412Z,16.04
2022-08-05T03:15:26.285Z,15.95
2022-08-05T03:19:17.113Z,15.87
2022-08-05T03:22:50.044Z,15.79
2022-08-05T03:26:45.785Z,15.77
2022-08-05T03:30:34.569Z,15.76
2022-08-05T03:34:15.409Z,15.71
2022-08-05T03:37:57.361Z,15.69
2022-08-05T03:41:19.689Z,15.66
2022-08-05T03:44:56.958Z,15.60
2022-08-05T03:48:35.654Z,15.56
2022-08-05T03:52:50.073Z,15.53
2022-08-05T03:56:34.776Z,15.55
2022-08-05T04:00:01.779Z,15.59
2022-08-05T04:03:38.038Z,15.62
2022-08-05T04:07:11.687Z,15.64
2022-08-05T04:10:47.614Z,15.69
2022-08-05T04:14:30.513Z,15.75
2022-08-05T04:18:06.755Z,15.83
2022-08-05T04:22:05.736Z,15.91
2022-08-05T04:25:24.174Z,16.00
2022-08-05T04:29:07.150Z,16.11
2022-08-05T04:32:58.673Z,16.21
2022-08-05T04:36:45.843Z,16.30
2022-08-05T04:40:22.109Z,16.43
2022-08-05T04:44:09.022Z,16.56
2022-08-05T04:47:38.558Z,16.68
2022-08-05T04:51:30.605Z,16.81
2022-08-05T04:55:14.517Z,16.93
2022-08-05T04:58:37.515Z,17.05
2022-08-05T05:02:37.655Z,17.18
2022-08-05T05:06:39.187Z,17.28
2022-08-05T05:09:39.563Z,17.39
2022-08-05T05:13:18.183Z,17.47
2022-08-05T05:16:52.992Z,17.54
2022-08-05T05:20:29.953Z,17.61
2022-08-05T05:24:58.005Z,17.73
2022-08-05T05:28:09.297Z,17.86
2022-08-05T05:31:46.357Z,17.97
2022-08-05T05:35:40.073Z,18.09
2022-08-05T05:39:23.439Z,18.21
2022-08-05T05:42:47.092Z,18.32
2022-08-05T05:46:22.433Z,18.42
2022-08-05T05:50:01.443Z,18.51
2022-08-05T05:53:58.736Z,18.66
2022-08-05T05:57:21.777Z,18.83
2022-08-05T06:01:02.057Z,18.99
2022-08-05T06:04:35.284Z,19.14
2022-08-05T06:08:15.043Z,19.27
2022-08-05T06:12:01.899Z,19.40
2022-08-05T06:16:29.067Z,19.54
2022-08-05T06:19:26.100Z,19.69
2022-08-05T06:22:58.532Z,19.90
2022-08-05T06:26:35.102Z,20.13
2022-08-05T06:30:20.007Z,20.26
2022-08-05T06:34:07.338Z,20.46
2022-08-05T06:37:56.480Z,20.60
2022-08-05T06:41:34.803Z,20.74
2022-08-05T06:45:45.055Z,20.87
2022-08-05T06:50:01.565Z,21.05
2022-08-05T06:53:11.573Z,21.30
2022-08-05T06:56:54.939Z,21.48
2022-08-05T07:00:27.969Z,21.63
2022-08-05T07:04:23.714Z,21.79
2022-08-05T07:07:48.966Z,21.92
2022-08-05T07:11:25.516Z,22.11
2022-08-05T07:15:34.511Z,22.34
2022-08-05T07:19:38.942Z,22.57
2022-08-05T07:23:02.746Z,22.69
2022-08-05T07:26:41.400Z,22.81
2022-08-05T07:30:27.292Z,22.96
2022-08-05T07:33:53.194Z,23.15
2022-08-05T07:37:36.759Z,23.30
2022-08-05T07:42:06.923Z,23.40
2022-08-05T07:44:52.927Z,23.53
2022-08-05T07:49:03.025Z,23.67
2022-08-05T07:52:12.539Z,23.87
2022-08-05T07:57:01.306Z,24.04
2022-08-05T08:00:11.363Z,24.20
2022-08-05T08:03:53.344Z,24.33
2022-08-05T08:07:15.311Z,24.46
2022-08-05T08:10:52.065Z,24.62
2022-08-05T08:14:47.586Z,24.74
2022-08-05T08:18:13.984Z,24.90
2022-08-05T08:21:46.283Z,25.05
2022-08-05T08:25:26.717Z,25.24
2022-08-05T08:29:21.960Z,25.39
2022-08-05T08:32:51.163Z,25.53
2022-08-05T08:36:38.161Z,25.66
2022-08-05T08:40:05.190Z,25.87
2022-08-05T08:45:19.090Z,26.01
2022-08-05T08:48:06.003Z,26.17
2022-08-05T08:52:02.183Z,26.35
2022-08-05T08:54:55.291Z,26.44
2022-08-05T08:58:52.125Z,26.54
2022-08-05T09:02:19.497Z,26.72
2022-08-05T09:06:11.110Z,26.85
2022-08-05T09:09:53.578Z,27.01
2022-08-05T09:13:19.900Z,27.15
2022-08-05T09:16:53.502Z,27.28
2022-08-05T09:20:37.290Z,27.40
2022-08-05T09:24:10.199Z,27.54
2022-08-05T09:28:03.830Z,27.66
2022-08-05T09:32:41.354Z,27.78
2022-08-05T09:36:03.637Z,28.05
2022-08-05T09:39:55.981Z,28.21
2022-08-05T09:43:40.526Z,28.31
2022-08-05T09:47:15.447Z,28.42
2022-08-05T09:50:44.668Z,28.49
2022-08-05T09:54:30.068Z,28.55
2022-08-05T09:57:58.723Z,28.71
2022-08-05T10:01:35.466Z,28.83
2022-08-05T10:05:32.676Z,28.90
2022-08-05T10:09:24.952Z,29.02
2022-08-05T10:12:53.915Z,29.17
2022-08-05T10:16:53.151Z,29.29
2022-08-05T10:20:18.225Z,29.44
2022-08-05T10:23:59.208Z,29.56
2022-08-05T10:28:09.548Z,29.71
2022-08-05T10:32:47.699Z,29.72
2022-08-05T10:35:00.902Z,29.79
2022-08-05T10:38:36.467Z,29.81
2022-08-05T10:42:32.410Z,29.89
2022-08-05T10:46:19.273Z,29.99
2022-08-05T10:50:31.834Z,30.02
2022-08-05T10:53:51.404Z,30.15
2022-08-05T10:57:30.967Z,30.33
2022-08-05T11:01:07.246Z,30.44
2022-08-05T11:04:54.573Z,30.54
2022-08-05T11:08:37.362Z,30.63
2022-08-05T11:12:03.270Z,30.84
2022-08-05T11:16:47.944Z,31.02
2022-08-05T11:20:17.545Z,31.26
2022-08-05T11:24:29.714Z,31.31
2022-08-05T11:28:08.916Z,31.33
2022-08-05T11:31:58.205Z,31.47
2022-08-05T11:36:07.627Z,31.61
2022-08-05T11:39:50.117Z,31.83
2022-08-05T11:44:06.621Z,32.05
2022-08-05T11:47:49.655Z,32.24
2022-08-05T11:51:14.663Z,32.38
2022-08-05T11:54:58.527Z,32.45
2022-08-05T11:58:53.316Z,32.52
2022-08-05T12:02:30.257Z,32.68
2022-08-05T12:05:58.603Z,32.81
2022-08-05T12:09:38.566Z,32.76
2022-08-05T12:13:28.009Z,32.90
2022-08-05T12:18:00.582Z,33.30
2022-08-05T12:20:50.053Z,33.61
2022-08-05T12:24:26.784Z,33.93
2022-08-05T12:28:38.191Z,34.10
2022-08-05T12:32:01.862Z,34.08
2022-08-05T12:35:39.854Z,34.18
2022-08-05T12:39:37.353Z,34.36
2022-08-05T12:43:21.284Z,34.70
2022-08-05T12:47:05.247Z,34.86
2022-08-05T12:50:27.123Z,34.74
2022-08-05T12:54:04.750Z,34.56
2022-08-05T12:58:38.494Z,34.53
2022-08-05T13:02:01.314Z,34.79
2022-08-05T13:05:26.623Z,35.01
2022-08-05T13:09:10.398Z,35.22
2022-08-05T13:12:57.290Z,35.29
2022-08-05T13:16:56.383Z,35.41
2022-08-05T13:20:23.741Z,35.62
2022-08-05T13:23:55.041Z,35.47
2022-08-05T13:27:44.158Z,35.64
2022-08-05T13:31:14.292Z,35.63
2022-08-05T13:34:51.337Z,35.92
2022-08-05T13:38:30.838Z,36.15
2022-08-05T13:42:04.050Z,36.17
2022-08-05T13:45:43.242Z,35.95
2022-08-05T13:49:16.695Z,35.93
2022-08-05T13:52:53.554Z,35.59
2022-08-05T13:56:30.344Z,35.70
2022-08-05T14:00:26.769Z,35.69
2022-08-05T14:04:09.851Z,35.62
2022-08-05T14:08:00.205Z,35.46
2022-08-05T14:11:22.071Z,35.85
2022-08-05T14:14:57.961Z,36.23
2022-08-05T14:18:34.558Z,36.31
2022-08-05T14:22:34.539Z,36.51
2022-08-05T14:25:57.976Z,36.45
2022-08-05T14:29:34.373Z,36.62
2022-08-05T14:33:09.937Z,36.71
2022-08-05T14:36:48.673Z,36.70
2022-08-05T14:40:24.220Z,36.28
2022-08-05T14:44:09.861Z,36.36
2022-08-05T14:48:05.750Z,36.59
2022-08-05T14:51:26.468Z,36.64
2022-08-05T14:55:01.770Z,36.91
2022-08-05T14:58:39.143Z,37.35
2022-08-05T15:02:34.254Z,37.60
2022-08-05T15:06:06.988Z,37.99
2022-08-05T15:09:51.465Z,38.72
2022-08-05T15:13:16.422Z,39.23
2022-08-05T15:17:44.678Z,39.49
2022-08-05T15:21:13.947Z,39.87
2022-08-05T15:24:57.719Z,39.57
2022-08-05T15:28:19.780Z,39.44
2022-08-05T15:31:56.091Z,39.55
2022-08-05T15:35:36.056Z,39.78
2022-08-05T15:40:57.418Z,39.69
2022-08-05T15:43:09.169Z,39.58
2022-08-05T15:46:57.356Z,39.45
2022-08-05T15:50:19.389Z,39.37
2022-08-05T15:54:15.251Z,39.52
2022-08-05T15:57:57.104Z,39.49
2022-08-05T16:01:20.199Z,39.14
2022-08-05T16:04:56.151Z,38.94
2022-08-05T16:08:32.585Z,38.65
2022-08-05T16:12:11.409Z,38.31
2022-08-05T16:15:46.041Z,38.09
2022-08-05T16:20:03.172Z,38.08
2022-08-05T16:23:08.406Z,38.09
2022-08-05T16:26:56.478Z,38.21
2022-08-05T16:30:38.472Z,38.33
2022-08-05T16:34:00.744Z,38.31
2022-08-05T16:38:16.289Z,38.11
2022-08-05T16:42:12.096Z,37.93
2022-08-05T16:46:03.929Z,37.74
2022-08-05T16:49:11.664Z,37.59
2022-08-05T16:52:56.564Z,37.43
2022-08-05T16:56:18.724Z,37.17
2022-08-05T17:00:04.379Z,36.89
2022-08-05T17:03:32.328Z,36.51
2022-08-05T17:07:11.625Z,36.09
2022-08-05T17:11:04.971Z,35.67
2022-08-05T17:14:37.698Z,35.15
2022-08-05T17:18:26.811Z,34.82
2022-08-05T17:21:51.589Z,34.46
2022-08-05T17:25:40.234Z,34.04
2022-08-05T17:29:07.321Z,33.56
2022-08-05T17:32:42.177Z,32.99
2022-08-05T17:36:33.598Z,32.31
2022-08-05T17:40:17.750Z,31.69
2022-08-05T17:43:47.218Z,31.09
2022-08-05T17:47:15.964Z,30.56
2022-08-05T17:50:53.086Z,30.13
2022-08-05T17:54:29.815Z,29.71
2022-08-05T17:58:12.772Z,29.30
2022-08-05T18:01:50.470Z,28.94
2022-08-05T18:05:20.405Z,28.64
2022-08-05T18:08:57.103Z,28.34
2022-08-05T18:12:33.697Z,28.03
2022-08-05T18:16:13.680Z,27.73
2022-08-05T18:19:51.402Z,27.49
2022-08-05T18:23:45.827Z,27.30
2022-08-05T18:27:12.442Z,27.09
2022-08-05T18:30:50.838Z,26.85
2022-08-05T18:34:22.895Z,26.65
2022-08-05T18:38:02.314Z,26.42
2022-08-05T18:41:55.147Z,26.20
2022-08-05T18:45:21.779Z,25.98
2022-08-05T18:49:21.136Z,25.76
2022-08-05T18:53:03.390Z,25.55
2022-08-05T18:56:35.952Z,25.37
2022-08-05T19:00:20.292Z,25.27
2022-08-05T19:04:12.238Z,25.19
2022-08-05T19:07:45.613Z,25.10
2022-08-05T19:11:11.703Z,25.01
2022-08-05T19:15:00.976Z,24.92
2022-08-05T19:18:26.290Z,24.82
2022-08-05T19:22:03.849Z,24.74
2022-08-05T19:25:43.705Z,24.66
2022-08-05T19:29:16.842Z,24.61
2022-08-05T19:32:53.653Z,24.53
2022-08-05T19:36:30.208Z,24.47
2022-08-05T19:40:10.458Z,24.39
2022-08-05T19:44:06.429Z,24.28
2022-08-05T19:47:26.301Z,24.22
2022-08-05T19:52:04.498Z,24.18
2022-08-05T19:55:06.811Z,24.10
2022-08-05T19:59:51.185Z,24.04
2022-08-05T20:03:05.363Z,24.00
2022-08-05T20:06:36.039Z,23.91
2022-08-05T20:10:13.452Z,23.81
2022-08-05T20:13:58.634Z,23.65
2022-08-05T20:17:29.247Z,23.58
2022-08-05T20:21:07.209Z,23.51
2022-08-05T20:24:42.149Z,23.43
2022-08-05T20:28:18.701Z,23.35
2022-08-05T20:32:14.537Z,23.25
2022-08-05T20:35:56.246Z,23.12
2022-08-05T20:39:21.032Z,22.95
2022-08-05T20:42:59.972Z,22.78
2022-08-05T20:46:34.503Z,22.64
2022-08-05T20:50:11.509Z,22.49
2022-08-05T20:53:55.256Z,22.36
2022-08-05T20:57:43.364Z,22.23
2022-08-05T21:01:07.456Z,22.08
2022-08-05T21:05:05.060Z,21.93
2022-08-05T21:08:50.081Z,21.81
2022-08-05T21:12:33.343Z,21.69
2022-08-05T21:15:54.990Z,21.61
2022-08-05T21:19:47.422Z,21.55
2022-08-05T21:23:37.038Z,21.49
2022-08-05T21:26:59.720Z,21.44
2022-08-05T21:30:35.823Z,21.37
2022-08-05T21:34:32.992Z,21.29
2022-08-05T21:37:57.919Z,21.20
2022-08-05T21:42:01.173Z,21.10
2022-08-05T21:45:38.231Z,21.00
2022-08-05T21:49:11.828Z,20.89
2022-08-05T21:52:51.522Z,20.80
2022-08-05T21:56:53.397Z,20.73
2022-08-05T22:00:51.173Z,20.65
2022-08-05T22:04:13.628Z,20.56
2022-08-05T22:07:58.364Z,20.51
2022-08-05T22:11:46.909Z,20.45
2022-08-05T22:15:10.918Z,20.40
2022-08-05T22:18:49.220Z,20.34
2022-08-05T22:22:26.825Z,20.27
2022-08-05T22:26:17.962Z,20.18
2022-08-05T22:29:43.565Z,20.09
2022-08-05T22:33:58.407Z,20.01
2022-08-05T22:37:22.394Z,19.93
2022-08-05T22:40:50.039Z,19.87
2022-08-05T22:44:21.582Z,19.82
2022-08-05T22:48:16.895Z,19.79
2022-08-05T22:52:04.611Z,19.77
2022-08-05T22:55:56.450Z,19.74
2022-08-05T22:59:45.010Z,19.69
2022-08-05T23:03:58.195Z,19.61
2022-08-05T23:07:13.160Z,19.52
2022-08-05T23:10:54.646Z,19.44
2022-08-05T23:14:38.857Z,19.35
2022-08-05T23:18:29.515Z,19.27
2022-08-05T23:21:54.921Z,19.22
2022-08-05T23:25:51.589Z,19.21
2022-08-05T23:29:15.691Z,19.18
2022-08-05T23:33:16.326Z,19.14
2022-08-05T23:36:45.027Z,19.07
2022-08-05T23:40:40.077Z,19.01
2022-08-05T23:44:05.915Z,18.96
2022-08-05T23:47:47.734Z,18.92
2022-08-05T23:51:17.727Z,18.90
2022-08-05T23:55:13.425Z,18.91
2022-08-05T23:58:35.120Z,18.93
